• Join FlightAware (Why Join?)
  • Login
  • US Flag 
11:21AM EDT


 

Airport Tracker/Info


-or-


 

Live Flight TrackerFlight Track Log ✈ TRS1795 ✈ 04-May-2012 ✈ KMKE - KCAK

Flight Track Log - Related Links

Times and Time Zones

All times are in EDT time to prevent confusion due to time zone crossing. See the TRS1795 flight status page for this flight to view local times or setup timezone preferences in your user account.

Time Position Orientation Groundspeed Altitude Reporting Facility
EDT Latitude Longitude Course Direction KTS MPH feet Rate Location/Type
09:33AM 42.9500 -87.9000 269° West 139 160 1,500  Level KMKE
09:35AM 42.9475 -88.0481 215° Southwest 263 303 7,900 2,880 Climbing Chicago Center
09:36AM 42.8878 -88.1058 168° South 285 328 11,300 3,000 Climbing Chicago Center
09:37AM 42.7894 -88.0767 158° South 375 432 14,000 2,820 Climbing Chicago Center
09:38AM 42.6931 -88.0250 150° Southeast 370 426 17,000 2,580 Climbing Chicago Center
09:39AM 42.6003 -87.9508 149° Southeast 376 433 19,200 2,220 Climbing Chicago Center
09:40AM 42.4950 -87.8658 140° Southeast 414 476 21,500 2,100 Climbing Chicago Center
09:41AM 42.4019 -87.7583 103° East 445 512 23,500 1,920 Climbing Chicago Center
09:42AM 42.3725 -87.5878 107° East 472 543 25,400 1,980 Climbing Chicago Center
09:43AM 42.3342 -87.4147 107° East 472 543 27,500 1,800 Climbing Chicago Center
09:44AM 42.2936 -87.2361 106° East 472 543 29,000 660 Climbing Chicago Center
09:45AM 42.2567 -87.0606 107° East 472 543 28,900 -900 Descending Chicago Center
09:46AM 42.2178 -86.8911 107° East 472 543 27,200 -1,680 Descending Chicago Center
09:47AM 42.1808 -86.7242 108° East 472 543 25,600 -1,140 Descending Chicago Center
09:48AM 42.1439 -86.5689 106° East 458 527 25,000 -300 Descending Chicago Center
09:49AM 42.1106 -86.4108 107° East 441 507 25,000  Level Chicago Center
09:50AM 42.0731 -86.2475 107° East 441 507 25,000  Level Chicago Center
09:51AM 42.0372 -86.0897 107° East 441 507 25,000  Level Chicago Center
09:52AM 41.9992 -85.9242 106° East 441 507 25,000  Level Chicago Center
09:53AM 41.9628 -85.7558 107° East 452 520 25,000  Level Chicago Center
09:54AM 41.9239 -85.5875 107° East 458 527 25,000  Level Chicago Center
09:55AM 41.8900 -85.4417 109° East 465 535 25,000  Level Chicago Center
09:56AM 41.8419 -85.2497 108° East 462 532 25,000  Level Cleveland Center
09:57AM 41.8025 -85.0908 107° East 504 580 25,000  Level Cleveland Center
09:58AM 41.7669 -84.9322 109° East 475 547 25,000  Level Cleveland Center
09:59AM 41.7250 -84.7708 107° East 462 532 25,000  Level Cleveland Center
10:00AM 41.6872 -84.6042 109° East 462 532 25,000  Level Cleveland Center
10:01AM 41.6467 -84.4461 107° East 457 526 25,000  Level Cleveland Center
10:02AM 41.6083 -84.2797 109° East 452 520 25,000  Level Cleveland Center
10:03AM 41.5675 -84.1192 107° East 452 520 25,000  Level Cleveland Center
10:04AM 41.5269 -83.9450 109° East 452 520 25,000  Level Cleveland Center
10:05AM 41.4858 -83.7819 111° Southeast 452 520 25,000 -360 Level Cleveland Center
10:06AM 41.4400 -83.6247 124° Southeast 452 520 24,300 -1,020 Descending Cleveland Center
10:07AM 41.3667 -83.4800 127° Southeast 462 532 23,000 -660 Descending Cleveland Center
10:08AM 41.2886 -83.3439 126° Southeast 468 539 23,000  Level Cleveland Center
10:09AM 41.2128 -83.2056 127° Southeast 468 539 23,000 -1,080 Level Cleveland Center
10:10AM 41.1344 -83.0672 126° Southeast 468 539 20,900 -2,640 Descending Cleveland Center
10:11AM 41.0622 -82.9350 127° Southeast 461 531 17,800 -1,980 Descending Cleveland Center
10:12AM 40.9878 -82.8031 127° Southeast 454 522 17,000 -420 Descending Cleveland Center
10:13AM 40.9150 -82.6769 117° Southeast 441 507 17,000  Level Cleveland Center
10:14AM 40.8614 -82.5350 99° East 436 502 17,000 -960 Level Cleveland Center
10:15AM 40.8447 -82.3975 97° East 425 489 15,100 -2,340 Descending Cleveland Center
10:16AM 40.8306 -82.2461 99° East 415 478 12,400 -2,280 Descending Cleveland Center
10:17AM 40.8139 -82.1003 98° East 407 468 10,600 -1,200 Descending Cleveland Center
10:18AM 40.8008 -81.9792 98° East 363 418 10,100 -900 Descending Cleveland Center
10:19AM 40.7894 -81.8667 99° East 320 368 8,900 -1,320 Descending Cleveland Center
10:20AM 40.7761 -81.7594 50° Northeast 296 341 7,500 -1,500 Descending Cleveland Center
10:21AM 40.8269 -81.6781 30° Northeast 273 314 6,000 -1,200 Descending Cleveland Center
10:22AM 40.8961 -81.6242 32° Northeast 273 314 5,100 -1,200 Descending Cleveland Center
10:23AM 40.9572 -81.5728 43° Northeast 268 308 3,600 -1,020 Descending Cleveland Center
10:24AM 41.0036 -81.5158 92° East 242 278 3,100 -600 Descending Cleveland Center
10:25AM 41.0019 -81.4442 173° South 168 193 2,500 -600 Descending Cleveland Center
10:26AM 40.9644 -81.4383 173° South 104 120 1,900 -600 Descending Cleveland Center